sensor_id;sensor_type;location;lat;lon;timestamp;P1;durP1;ratioP1;P2;durP2;ratioP2
76495;SDS011;65329;52.544;4.662;2023-09-30T00:01:58;3.60;;;1.10;;
76495;SDS011;65329;52.544;4.662;2023-09-30T00:04:25;7.90;;;1.52;;
76495;SDS011;65329;52.544;4.662;2023-09-30T00:06:54;5.25;;;1.20;;
76495;SDS011;65329;52.544;4.662;2023-09-30T00:09:21;5.82;;;1.15;;
76495;SDS011;65329;52.544;4.662;2023-09-30T00:11:48;11.27;;;2.00;;
76495;SDS011;65329;52.544;4.662;2023-09-30T00:14:15;4.63;;;1.20;;
76495;SDS011;65329;52.544;4.662;2023-09-30T00:16:43;7.57;;;1.52;;
76495;SDS011;65329;52.544;4.662;2023-09-30T00:19:11;4.80;;;1.00;;
76495;SDS011;65329;52.544;4.662;2023-09-30T00:21:38;3.53;;;1.25;;
76495;SDS011;65329;52.544;4.662;2023-09-30T00:24:06;4.70;;;0.93;;
76495;SDS011;65329;52.544;4.662;2023-09-30T00:26:33;3.47;;;1.45;;
76495;SDS011;65329;52.544;4.662;2023-09-30T00:29:00;5.45;;;1.45;;
76495;SDS011;65329;52.544;4.662;2023-09-30T00:31:31;5.10;;;1.20;;
76495;SDS011;65329;52.544;4.662;2023-09-30T00:33:58;3.67;;;1.10;;
76495;SDS011;65329;52.544;4.662;2023-09-30T00:36:25;10.23;;;1.40;;
76495;SDS011;65329;52.544;4.662;2023-09-30T00:38:53;5.82;;;1.10;;
76495;SDS011;65329;52.544;4.662;2023-09-30T00:41:20;10.07;;;1.70;;
76495;SDS011;65329;52.544;4.662;2023-09-30T00:43:46;5.97;;;1.67;;
76495;SDS011;65329;52.544;4.662;2023-09-30T00:46:34;7.93;;;0.85;;
76495;SDS011;65329;52.544;4.662;2023-09-30T00:49:04;7.88;;;1.17;;
76495;SDS011;65329;52.544;4.662;2023-09-30T00:51:31;7.65;;;1.80;;
76495;SDS011;65329;52.544;4.662;2023-09-30T00:54:00;6.93;;;2.33;;
76495;SDS011;65329;52.544;4.662;2023-09-30T00:56:27;6.20;;;2.10;;
76495;SDS011;65329;52.544;4.662;2023-09-30T00:58:57;5.13;;;1.55;;
76495;SDS011;65329;52.544;4.662;2023-09-30T01:01:25;5.10;;;1.42;;
76495;SDS011;65329;52.544;4.662;2023-09-30T01:03:52;3.25;;;0.90;;
76495;SDS011;65329;52.544;4.662;2023-09-30T01:06:20;2.88;;;0.85;;
76495;SDS011;65329;52.544;4.662;2023-09-30T01:08:47;2.70;;;1.15;;
76495;SDS011;65329;52.544;4.662;2023-09-30T01:11:14;4.32;;;0.95;;
76495;SDS011;65329;52.544;4.662;2023-09-30T01:13:42;3.58;;;1.10;;
76495;SDS011;65329;52.544;4.662;2023-09-30T01:16:11;2.88;;;1.08;;
76495;SDS011;65329;52.544;4.662;2023-09-30T01:18:39;2.83;;;0.85;;
76495;SDS011;65329;52.544;4.662;2023-09-30T01:21:09;4.68;;;1.10;;
76495;SDS011;65329;52.544;4.662;2023-09-30T01:23:40;3.80;;;0.90;;
76495;SDS011;65329;52.544;4.662;2023-09-30T01:26:08;5.18;;;1.00;;
76495;SDS011;65329;52.544;4.662;2023-09-30T01:28:41;3.67;;;0.77;;
76495;SDS011;65329;52.544;4.662;2023-09-30T01:31:08;5.47;;;2.30;;
76495;SDS011;65329;52.544;4.662;2023-09-30T01:33:35;4.80;;;1.00;;
76495;SDS011;65329;52.544;4.662;2023-09-30T01:36:02;5.40;;;1.25;;
76495;SDS011;65329;52.544;4.662;2023-09-30T01:38:30;2.60;;;0.90;;
76495;SDS011;65329;52.544;4.662;2023-09-30T01:40:57;6.63;;;1.38;;
76495;SDS011;65329;52.544;4.662;2023-09-30T01:43:27;5.43;;;1.30;;
76495;SDS011;65329;52.544;4.662;2023-09-30T01:45:55;5.80;;;1.17;;
76495;SDS011;65329;52.544;4.662;2023-09-30T01:48:22;3.92;;;1.27;;
76495;SDS011;65329;52.544;4.662;2023-09-30T01:50:51;14.75;;;1.75;;
76495;SDS011;65329;52.544;4.662;2023-09-30T01:53:19;5.50;;;1.40;;
76495;SDS011;65329;52.544;4.662;2023-09-30T01:55:46;4.88;;;0.90;;
76495;SDS011;65329;52.544;4.662;2023-09-30T01:58:14;4.22;;;0.90;;
76495;SDS011;65329;52.544;4.662;2023-09-30T02:00:41;3.20;;;1.10;;
76495;SDS011;65329;52.544;4.662;2023-09-30T02:03:09;4.43;;;0.80;;
76495;SDS011;65329;52.544;4.662;2023-09-30T02:05:36;5.00;;;1.08;;
76495;SDS011;65329;52.544;4.662;2023-09-30T02:08:05;2.80;;;0.88;;
76495;SDS011;65329;52.544;4.662;2023-09-30T02:10:33;3.63;;;0.95;;
76495;SDS011;65329;52.544;4.662;2023-09-30T02:13:00;7.60;;;1.63;;
76495;SDS011;65329;52.544;4.662;2023-09-30T02:15:33;6.57;;;1.08;;
76495;SDS011;65329;52.544;4.662;2023-09-30T02:18:00;3.42;;;1.00;;
76495;SDS011;65329;52.544;4.662;2023-09-30T02:20:30;4.15;;;1.10;;
76495;SDS011;65329;52.544;4.662;2023-09-30T02:22:59;4.15;;;1.38;;
76495;SDS011;65329;52.544;4.662;2023-09-30T02:25:26;5.00;;;1.17;;
76495;SDS011;65329;52.544;4.662;2023-09-30T02:27:54;6.38;;;1.35;;
76495;SDS011;65329;52.544;4.662;2023-09-30T02:30:22;5.18;;;1.23;;
76495;SDS011;65329;52.544;4.662;2023-09-30T02:32:50;4.25;;;1.10;;
76495;SDS011;65329;52.544;4.662;2023-09-30T02:35:17;4.50;;;1.13;;
76495;SDS011;65329;52.544;4.662;2023-09-30T02:37:45;4.65;;;1.23;;
76495;SDS011;65329;52.544;4.662;2023-09-30T02:40:12;5.72;;;1.00;;
76495;SDS011;65329;52.544;4.662;2023-09-30T02:42:41;6.55;;;1.20;;
76495;SDS011;65329;52.544;4.662;2023-09-30T02:45:08;4.05;;;1.17;;
76495;SDS011;65329;52.544;4.662;2023-09-30T02:47:38;4.35;;;1.17;;
76495;SDS011;65329;52.544;4.662;2023-09-30T02:50:06;3.00;;;1.13;;
76495;SDS011;65329;52.544;4.662;2023-09-30T02:52:35;3.70;;;0.90;;
76495;SDS011;65329;52.544;4.662;2023-09-30T02:55:03;5.25;;;1.00;;
76495;SDS011;65329;52.544;4.662;2023-09-30T02:57:30;5.47;;;2.17;;
76495;SDS011;65329;52.544;4.662;2023-09-30T03:00:00;8.52;;;1.52;;
76495;SDS011;65329;52.544;4.662;2023-09-30T03:02:27;2.90;;;0.85;;
76495;SDS011;65329;52.544;4.662;2023-09-30T03:04:55;7.20;;;0.93;;
76495;SDS011;65329;52.544;4.662;2023-09-30T03:07:25;3.35;;;1.20;;
76495;SDS011;65329;52.544;4.662;2023-09-30T03:09:52;5.90;;;1.08;;
76495;SDS011;65329;52.544;4.662;2023-09-30T03:12:20;6.13;;;1.42;;
76495;SDS011;65329;52.544;4.662;2023-09-30T03:14:47;3.20;;;1.00;;
76495;SDS011;65329;52.544;4.662;2023-09-30T03:17:14;3.65;;;1.38;;
76495;SDS011;65329;52.544;4.662;2023-09-30T03:19:41;3.50;;;1.90;;
76495;SDS011;65329;52.544;4.662;2023-09-30T03:22:08;4.88;;;1.75;;
76495;SDS011;65329;52.544;4.662;2023-09-30T03:24:38;5.25;;;1.92;;
76495;SDS011;65329;52.544;4.662;2023-09-30T03:27:08;8.25;;;1.70;;
76495;SDS011;65329;52.544;4.662;2023-09-30T03:29:35;6.05;;;1.50;;
76495;SDS011;65329;52.544;4.662;2023-09-30T03:32:05;6.00;;;1.98;;
76495;SDS011;65329;52.544;4.662;2023-09-30T03:34:33;7.97;;;1.90;;
76495;SDS011;65329;52.544;4.662;2023-09-30T03:37:03;6.10;;;2.22;;
76495;SDS011;65329;52.544;4.662;2023-09-30T03:39:34;3.95;;;1.85;;
76495;SDS011;65329;52.544;4.662;2023-09-30T03:42:01;3.15;;;1.50;;
76495;SDS011;65329;52.544;4.662;2023-09-30T03:44:29;5.90;;;1.85;;
76495;SDS011;65329;52.544;4.662;2023-09-30T03:46:56;4.65;;;1.50;;
76495;SDS011;65329;52.544;4.662;2023-09-30T03:49:27;4.85;;;1.60;;
76495;SDS011;65329;52.544;4.662;2023-09-30T03:51:55;6.60;;;2.15;;
76495;SDS011;65329;52.544;4.662;2023-09-30T03:54:22;5.55;;;1.85;;
76495;SDS011;65329;52.544;4.662;2023-09-30T03:56:49;4.95;;;1.95;;
76495;SDS011;65329;52.544;4.662;2023-09-30T03:59:16;4.47;;;2.05;;
76495;SDS011;65329;52.544;4.662;2023-09-30T04:01:45;5.25;;;2.25;;
76495;SDS011;65329;52.544;4.662;2023-09-30T04:04:15;3.13;;;2.00;;
76495;SDS011;65329;52.544;4.662;2023-09-30T04:06:42;5.55;;;1.70;;
76495;SDS011;65329;52.544;4.662;2023-09-30T04:09:10;4.35;;;2.15;;
76495;SDS011;65329;52.544;4.662;2023-09-30T04:11:37;10.98;;;2.00;;
76495;SDS011;65329;52.544;4.662;2023-09-30T04:14:05;6.57;;;2.03;;
76495;SDS011;65329;52.544;4.662;2023-09-30T04:16:33;5.95;;;2.20;;
76495;SDS011;65329;52.544;4.662;2023-09-30T04:19:00;3.25;;;2.17;;
76495;SDS011;65329;52.544;4.662;2023-09-30T04:21:28;4.38;;;1.70;;
76495;SDS011;65329;52.544;4.662;2023-09-30T04:23:57;6.38;;;1.88;;
76495;SDS011;65329;52.544;4.662;2023-09-30T04:26:26;7.88;;;2.50;;
76495;SDS011;65329;52.544;4.662;2023-09-30T04:28:54;5.82;;;1.75;;
76495;SDS011;65329;52.544;4.662;2023-09-30T04:31:23;5.63;;;1.85;;
76495;SDS011;65329;52.544;4.662;2023-09-30T04:33:51;3.97;;;1.83;;
76495;SDS011;65329;52.544;4.662;2023-09-30T04:36:18;4.47;;;1.80;;
76495;SDS011;65329;52.544;4.662;2023-09-30T04:38:46;5.90;;;2.47;;
76495;SDS011;65329;52.544;4.662;2023-09-30T04:41:13;7.25;;;2.45;;
76495;SDS011;65329;52.544;4.662;2023-09-30T04:43:42;7.47;;;2.13;;
76495;SDS011;65329;52.544;4.662;2023-09-30T04:46:10;7.55;;;1.85;;
76495;SDS011;65329;52.544;4.662;2023-09-30T04:48:41;5.20;;;1.55;;
76495;SDS011;65329;52.544;4.662;2023-09-30T04:51:08;4.50;;;1.90;;
76495;SDS011;65329;52.544;4.662;2023-09-30T04:53:36;6.35;;;2.67;;
76495;SDS011;65329;52.544;4.662;2023-09-30T04:56:04;8.27;;;2.40;;
76495;SDS011;65329;52.544;4.662;2023-09-30T04:58:34;7.78;;;2.20;;
76495;SDS011;65329;52.544;4.662;2023-09-30T05:01:01;5.40;;;1.95;;
76495;SDS011;65329;52.544;4.662;2023-09-30T05:03:28;8.40;;;2.85;;
76495;SDS011;65329;52.544;4.662;2023-09-30T05:05:55;3.35;;;1.90;;
76495;SDS011;65329;52.544;4.662;2023-09-30T05:08:24;6.75;;;2.75;;
76495;SDS011;65329;52.544;4.662;2023-09-30T05:10:52;5.93;;;2.28;;
76495;SDS011;65329;52.544;4.662;2023-09-30T05:13:23;3.30;;;1.95;;
76495;SDS011;65329;52.544;4.662;2023-09-30T05:15:50;6.05;;;2.63;;
76495;SDS011;65329;52.544;4.662;2023-09-30T05:18:20;6.88;;;2.40;;
76495;SDS011;65329;52.544;4.662;2023-09-30T05:20:48;3.95;;;1.92;;
76495;SDS011;65329;52.544;4.662;2023-09-30T05:23:16;5.18;;;2.58;;
76495;SDS011;65329;52.544;4.662;2023-09-30T05:25:45;5.95;;;2.88;;
76495;SDS011;65329;52.544;4.662;2023-09-30T05:28:12;5.93;;;2.50;;
76495;SDS011;65329;52.544;4.662;2023-09-30T05:30:40;5.32;;;3.13;;
76495;SDS011;65329;52.544;4.662;2023-09-30T05:33:07;6.40;;;2.50;;
76495;SDS011;65329;52.544;4.662;2023-09-30T05:35:42;9.43;;;2.95;;
76495;SDS011;65329;52.544;4.662;2023-09-30T05:38:10;7.65;;;2.88;;
76495;SDS011;65329;52.544;4.662;2023-09-30T05:40:37;6.10;;;2.90;;
76495;SDS011;65329;52.544;4.662;2023-09-30T05:43:04;5.68;;;2.40;;
76495;SDS011;65329;52.544;4.662;2023-09-30T05:45:32;5.70;;;2.22;;
76495;SDS011;65329;52.544;4.662;2023-09-30T05:48:03;5.57;;;2.67;;
76495;SDS011;65329;52.544;4.662;2023-09-30T05:50:33;3.95;;;1.95;;
76495;SDS011;65329;52.544;4.662;2023-09-30T05:53:03;3.95;;;2.03;;
76495;SDS011;65329;52.544;4.662;2023-09-30T05:55:31;7.00;;;2.13;;
76495;SDS011;65329;52.544;4.662;2023-09-30T05:57:59;5.07;;;2.28;;
76495;SDS011;65329;52.544;4.662;2023-09-30T06:00:27;4.93;;;2.42;;
76495;SDS011;65329;52.544;4.662;2023-09-30T06:02:58;5.57;;;2.10;;
76495;SDS011;65329;52.544;4.662;2023-09-30T06:05:26;4.10;;;1.85;;
76495;SDS011;65329;52.544;4.662;2023-09-30T06:07:56;4.35;;;2.40;;
76495;SDS011;65329;52.544;4.662;2023-09-30T06:10:23;6.85;;;2.60;;
76495;SDS011;65329;52.544;4.662;2023-09-30T06:12:53;7.13;;;2.63;;
76495;SDS011;65329;52.544;4.662;2023-09-30T06:15:23;8.68;;;3.13;;
76495;SDS011;65329;52.544;4.662;2023-09-30T06:17:56;3.67;;;2.10;;
76495;SDS011;65329;52.544;4.662;2023-09-30T06:20:23;7.38;;;2.50;;
76495;SDS011;65329;52.544;4.662;2023-09-30T06:22:54;7.38;;;2.30;;
76495;SDS011;65329;52.544;4.662;2023-09-30T06:25:21;4.55;;;2.13;;
76495;SDS011;65329;52.544;4.662;2023-09-30T06:27:51;4.53;;;1.95;;
76495;SDS011;65329;52.544;4.662;2023-09-30T06:30:19;4.30;;;2.00;;
76495;SDS011;65329;52.544;4.662;2023-09-30T06:32:49;5.78;;;1.75;;
76495;SDS011;65329;52.544;4.662;2023-09-30T06:35:16;4.63;;;2.60;;
76495;SDS011;65329;52.544;4.662;2023-09-30T06:37:47;3.72;;;2.00;;
76495;SDS011;65329;52.544;4.662;2023-09-30T06:40:14;5.88;;;2.13;;
76495;SDS011;65329;52.544;4.662;2023-09-30T06:42:41;4.15;;;2.25;;
76495;SDS011;65329;52.544;4.662;2023-09-30T06:45:09;5.32;;;2.63;;
76495;SDS011;65329;52.544;4.662;2023-09-30T06:47:37;5.07;;;2.15;;
76495;SDS011;65329;52.544;4.662;2023-09-30T06:50:10;4.82;;;2.58;;
76495;SDS011;65329;52.544;4.662;2023-09-30T06:52:40;4.82;;;2.25;;
76495;SDS011;65329;52.544;4.662;2023-09-30T06:55:11;6.63;;;2.67;;
76495;SDS011;65329;52.544;4.662;2023-09-30T06:57:45;4.57;;;2.30;;
76495;SDS011;65329;52.544;4.662;2023-09-30T07:00:13;8.80;;;2.65;;
76495;SDS011;65329;52.544;4.662;2023-09-30T07:02:41;4.90;;;2.42;;
76495;SDS011;65329;52.544;4.662;2023-09-30T07:05:11;5.47;;;2.83;;
76495;SDS011;65329;52.544;4.662;2023-09-30T07:07:40;7.72;;;3.05;;
76495;SDS011;65329;52.544;4.662;2023-09-30T07:10:09;8.55;;;2.50;;
76495;SDS011;65329;52.544;4.662;2023-09-30T07:12:38;3.63;;;2.80;;
76495;SDS011;65329;52.544;4.662;2023-09-30T07:15:06;7.43;;;2.85;;
76495;SDS011;65329;52.544;4.662;2023-09-30T07:17:35;6.60;;;2.88;;
76495;SDS011;65329;52.544;4.662;2023-09-30T07:20:06;5.03;;;2.60;;
76495;SDS011;65329;52.544;4.662;2023-09-30T07:22:33;7.75;;;2.53;;
76495;SDS011;65329;52.544;4.662;2023-09-30T07:25:21;5.65;;;2.72;;
76495;SDS011;65329;52.544;4.662;2023-09-30T07:27:48;5.80;;;2.90;;
76495;SDS011;65329;52.544;4.662;2023-09-30T07:30:15;5.60;;;2.78;;
76495;SDS011;65329;52.544;4.662;2023-09-30T07:32:43;7.00;;;3.00;;
76495;SDS011;65329;52.544;4.662;2023-09-30T07:35:11;8.35;;;3.47;;
76495;SDS011;65329;52.544;4.662;2023-09-30T07:37:41;5.93;;;3.05;;
76495;SDS011;65329;52.544;4.662;2023-09-30T07:40:10;6.82;;;2.60;;
76495;SDS011;65329;52.544;4.662;2023-09-30T07:42:41;5.78;;;2.75;;
76495;SDS011;65329;52.544;4.662;2023-09-30T07:45:09;12.65;;;3.72;;
76495;SDS011;65329;52.544;4.662;2023-09-30T07:47:38;8.52;;;2.72;;
76495;SDS011;65329;52.544;4.662;2023-09-30T07:50:05;9.40;;;3.05;;
76495;SDS011;65329;52.544;4.662;2023-09-30T07:52:37;5.40;;;2.30;;
76495;SDS011;65329;52.544;4.662;2023-09-30T07:55:06;6.75;;;2.58;;
76495;SDS011;65329;52.544;4.662;2023-09-30T07:57:35;6.60;;;2.35;;
76495;SDS011;65329;52.544;4.662;2023-09-30T08:00:03;9.55;;;2.40;;
76495;SDS011;65329;52.544;4.662;2023-09-30T08:02:37;8.43;;;2.35;;
76495;SDS011;65329;52.544;4.662;2023-09-30T08:05:05;5.05;;;1.80;;
76495;SDS011;65329;52.544;4.662;2023-09-30T08:07:33;3.97;;;1.80;;
76495;SDS011;65329;52.544;4.662;2023-09-30T08:10:01;3.58;;;1.83;;
76495;SDS011;65329;52.544;4.662;2023-09-30T08:12:33;5.50;;;2.10;;
76495;SDS011;65329;52.544;4.662;2023-09-30T08:15:00;4.53;;;2.00;;
76495;SDS011;65329;52.544;4.662;2023-09-30T08:17:30;6.57;;;1.60;;
76495;SDS011;65329;52.544;4.662;2023-09-30T08:19:58;4.85;;;1.63;;
76495;SDS011;65329;52.544;4.662;2023-09-30T08:22:25;4.22;;;1.52;;
76495;SDS011;65329;52.544;4.662;2023-09-30T08:24:54;4.93;;;1.30;;
76495;SDS011;65329;52.544;4.662;2023-09-30T08:27:22;4.15;;;1.00;;
76495;SDS011;65329;52.544;4.662;2023-09-30T08:29:51;4.28;;;1.15;;
76495;SDS011;65329;52.544;4.662;2023-09-30T08:32:18;5.50;;;0.90;;
76495;SDS011;65329;52.544;4.662;2023-09-30T08:34:45;2.88;;;0.80;;
76495;SDS011;65329;52.544;4.662;2023-09-30T08:37:12;3.83;;;1.13;;
76495;SDS011;65329;52.544;4.662;2023-09-30T08:39:39;3.20;;;0.90;;
76495;SDS011;65329;52.544;4.662;2023-09-30T08:42:12;5.78;;;1.38;;
76495;SDS011;65329;52.544;4.662;2023-09-30T08:44:39;4.38;;;1.00;;
76495;SDS011;65329;52.544;4.662;2023-09-30T08:47:06;5.20;;;1.10;;
76495;SDS011;65329;52.544;4.662;2023-09-30T08:49:37;3.40;;;1.00;;
76495;SDS011;65329;52.544;4.662;2023-09-30T08:52:05;4.80;;;0.98;;
76495;SDS011;65329;52.544;4.662;2023-09-30T08:54:35;5.07;;;1.13;;
76495;SDS011;65329;52.544;4.662;2023-09-30T08:57:02;4.00;;;0.73;;
76495;SDS011;65329;52.544;4.662;2023-09-30T08:59:31;4.70;;;0.82;;
76495;SDS011;65329;52.544;4.662;2023-09-30T09:02:01;3.90;;;0.90;;
76495;SDS011;65329;52.544;4.662;2023-09-30T09:04:30;3.05;;;1.30;;
76495;SDS011;65329;52.544;4.662;2023-09-30T09:06:59;6.93;;;1.50;;
76495;SDS011;65329;52.544;4.662;2023-09-30T09:09:26;5.28;;;0.85;;
76495;SDS011;65329;52.544;4.662;2023-09-30T09:11:53;4.85;;;1.05;;
76495;SDS011;65329;52.544;4.662;2023-09-30T09:14:39;2.25;;;0.85;;
76495;SDS011;65329;52.544;4.662;2023-09-30T09:17:07;4.63;;;0.93;;
76495;SDS011;65329;52.544;4.662;2023-09-30T09:19:35;3.15;;;0.50;;
76495;SDS011;65329;52.544;4.662;2023-09-30T09:22:02;3.75;;;0.90;;
76495;SDS011;65329;52.544;4.662;2023-09-30T09:24:34;4.82;;;1.02;;
76495;SDS011;65329;52.544;4.662;2023-09-30T09:27:03;4.18;;;1.17;;
76495;SDS011;65329;52.544;4.662;2023-09-30T09:29:44;3.28;;;1.00;;
76495;SDS011;65329;52.544;4.662;2023-09-30T09:32:16;3.97;;;0.93;;
76495;SDS011;65329;52.544;4.662;2023-09-30T09:34:44;3.72;;;0.70;;
76495;SDS011;65329;52.544;4.662;2023-09-30T09:37:18;3.15;;;0.70;;
76495;SDS011;65329;52.544;4.662;2023-09-30T09:39:51;2.97;;;0.98;;
76495;SDS011;65329;52.544;4.662;2023-09-30T09:42:26;3.30;;;0.88;;
76495;SDS011;65329;52.544;4.662;2023-09-30T09:45:03;5.13;;;1.30;;
76495;SDS011;65329;52.544;4.662;2023-09-30T09:47:33;2.10;;;0.80;;
76495;SDS011;65329;52.544;4.662;2023-09-30T09:50:02;3.03;;;0.75;;
76495;SDS011;65329;52.544;4.662;2023-09-30T09:52:33;5.40;;;1.00;;
76495;SDS011;65329;52.544;4.662;2023-09-30T09:55:02;4.82;;;1.20;;
76495;SDS011;65329;52.544;4.662;2023-09-30T09:57:30;3.13;;;0.80;;
76495;SDS011;65329;52.544;4.662;2023-09-30T09:59:58;3.00;;;0.90;;
76495;SDS011;65329;52.544;4.662;2023-09-30T10:02:26;3.42;;;0.90;;
76495;SDS011;65329;52.544;4.662;2023-09-30T10:04:55;4.18;;;0.70;;
76495;SDS011;65329;52.544;4.662;2023-09-30T10:07:27;3.13;;;1.05;;
76495;SDS011;65329;52.544;4.662;2023-09-30T10:10:00;3.78;;;1.05;;
76495;SDS011;65329;52.544;4.662;2023-09-30T10:12:35;2.88;;;1.00;;
76495;SDS011;65329;52.544;4.662;2023-09-30T10:18:10;4.18;;;0.85;;
76495;SDS011;65329;52.544;4.662;2023-09-30T10:20:42;3.95;;;0.90;;
76495;SDS011;65329;52.544;4.662;2023-09-30T10:23:28;3.25;;;0.70;;
76495;SDS011;65329;52.544;4.662;2023-09-30T10:31:14;3.28;;;0.80;;
76495;SDS011;65329;52.544;4.662;2023-09-30T10:38:56;4.57;;;1.00;;
76495;SDS011;65329;52.544;4.662;2023-09-30T10:46:52;2.47;;;0.60;;
76495;SDS011;65329;52.544;4.662;2023-09-30T10:51:53;3.50;;;0.80;;
76495;SDS011;65329;52.544;4.662;2023-09-30T10:54:22;4.90;;;0.73;;
76495;SDS011;65329;52.544;4.662;2023-09-30T10:56:50;4.20;;;1.00;;
76495;SDS011;65329;52.544;4.662;2023-09-30T10:59:21;3.47;;;0.70;;
76495;SDS011;65329;52.544;4.662;2023-09-30T11:01:52;4.72;;;0.90;;
76495;SDS011;65329;52.544;4.662;2023-09-30T11:04:23;6.28;;;1.30;;
76495;SDS011;65329;52.544;4.662;2023-09-30T11:06:50;4.38;;;0.73;;
76495;SDS011;65329;52.544;4.662;2023-09-30T11:09:21;5.32;;;1.00;;
76495;SDS011;65329;52.544;4.662;2023-09-30T11:11:49;7.55;;;1.55;;
76495;SDS011;65329;52.544;4.662;2023-09-30T11:14:19;4.47;;;1.00;;
76495;SDS011;65329;52.544;4.662;2023-09-30T11:17:02;3.53;;;1.08;;
76495;SDS011;65329;52.544;4.662;2023-09-30T11:19:36;3.80;;;0.63;;
76495;SDS011;65329;52.544;4.662;2023-09-30T11:22:12;4.95;;;0.90;;
76495;SDS011;65329;52.544;4.662;2023-09-30T11:24:39;3.20;;;1.00;;
76495;SDS011;65329;52.544;4.662;2023-09-30T11:27:06;3.30;;;0.95;;
76495;SDS011;65329;52.544;4.662;2023-09-30T11:29:34;3.20;;;1.35;;
76495;SDS011;65329;52.544;4.662;2023-09-30T11:32:01;3.75;;;1.08;;
76495;SDS011;65329;52.544;4.662;2023-09-30T11:34:33;7.00;;;1.25;;
76495;SDS011;65329;52.544;4.662;2023-09-30T11:37:01;6.43;;;1.30;;
76495;SDS011;65329;52.544;4.662;2023-09-30T11:39:29;4.45;;;0.98;;
76495;SDS011;65329;52.544;4.662;2023-09-30T11:41:56;4.13;;;2.05;;
76495;SDS011;65329;52.544;4.662;2023-09-30T11:44:24;3.13;;;0.65;;
76495;SDS011;65329;52.544;4.662;2023-09-30T11:46:58;4.45;;;1.50;;
76495;SDS011;65329;52.544;4.662;2023-09-30T11:49:32;6.80;;;0.85;;
76495;SDS011;65329;52.544;4.662;2023-09-30T11:52:08;2.63;;;0.70;;
76495;SDS011;65329;52.544;4.662;2023-09-30T11:57:08;3.90;;;1.13;;
76495;SDS011;65329;52.544;4.662;2023-09-30T11:59:42;5.18;;;1.88;;
76495;SDS011;65329;52.544;4.662;2023-09-30T12:02:12;2.78;;;1.27;;
76495;SDS011;65329;52.544;4.662;2023-09-30T12:04:44;1.58;;;0.90;;
76495;SDS011;65329;52.544;4.662;2023-09-30T12:07:14;4.18;;;1.00;;
76495;SDS011;65329;52.544;4.662;2023-09-30T12:09:42;6.35;;;1.13;;
76495;SDS011;65329;52.544;4.662;2023-09-30T12:12:09;5.00;;;1.02;;
76495;SDS011;65329;52.544;4.662;2023-09-30T12:14:38;5.13;;;0.88;;
76495;SDS011;65329;52.544;4.662;2023-09-30T12:17:05;4.93;;;1.05;;
76495;SDS011;65329;52.544;4.662;2023-09-30T12:19:32;3.13;;;0.90;;
76495;SDS011;65329;52.544;4.662;2023-09-30T12:21:59;5.03;;;1.05;;
76495;SDS011;65329;52.544;4.662;2023-09-30T12:24:26;5.03;;;1.10;;
76495;SDS011;65329;52.544;4.662;2023-09-30T12:26:54;4.25;;;1.35;;
76495;SDS011;65329;52.544;4.662;2023-09-30T12:29:21;7.97;;;1.70;;
76495;SDS011;65329;52.544;4.662;2023-09-30T12:31:53;4.03;;;0.98;;
76495;SDS011;65329;52.544;4.662;2023-09-30T12:34:21;6.18;;;1.00;;
76495;SDS011;65329;52.544;4.662;2023-09-30T12:36:54;3.22;;;0.75;;
76495;SDS011;65329;52.544;4.662;2023-09-30T12:39:24;3.13;;;0.75;;
76495;SDS011;65329;52.544;4.662;2023-09-30T12:41:52;5.22;;;0.80;;
76495;SDS011;65329;52.544;4.662;2023-09-30T12:44:20;5.28;;;1.40;;
76495;SDS011;65329;52.544;4.662;2023-09-30T12:46:47;5.63;;;1.25;;
76495;SDS011;65329;52.544;4.662;2023-09-30T12:49:14;4.35;;;0.90;;
76495;SDS011;65329;52.544;4.662;2023-09-30T12:51:41;3.35;;;0.93;;
76495;SDS011;65329;52.544;4.662;2023-09-30T12:54:09;5.82;;;1.30;;
76495;SDS011;65329;52.544;4.662;2023-09-30T12:56:37;2.65;;;0.90;;
76495;SDS011;65329;52.544;4.662;2023-09-30T12:59:04;3.33;;;1.30;;
76495;SDS011;65329;52.544;4.662;2023-09-30T13:01:31;5.55;;;0.98;;
76495;SDS011;65329;52.544;4.662;2023-09-30T13:04:01;6.18;;;1.77;;
76495;SDS011;65329;52.544;4.662;2023-09-30T13:06:30;5.85;;;1.30;;
76495;SDS011;65329;52.544;4.662;2023-09-30T13:09:02;5.35;;;0.90;;
76495;SDS011;65329;52.544;4.662;2023-09-30T13:11:33;6.13;;;1.17;;
76495;SDS011;65329;52.544;4.662;2023-09-30T13:14:03;7.80;;;1.30;;
76495;SDS011;65329;52.544;4.662;2023-09-30T13:16:30;5.15;;;1.02;;
76495;SDS011;65329;52.544;4.662;2023-09-30T13:21:28;9.05;;;1.80;;
76495;SDS011;65329;52.544;4.662;2023-09-30T13:23:58;7.10;;;1.40;;
76495;SDS011;65329;52.544;4.662;2023-09-30T13:26:25;7.20;;;1.48;;
76495;SDS011;65329;52.544;4.662;2023-09-30T13:28:52;4.75;;;1.02;;
76495;SDS011;65329;52.544;4.662;2023-09-30T13:31:19;6.72;;;1.45;;
76495;SDS011;65329;52.544;4.662;2023-09-30T13:33:46;4.40;;;1.33;;
76495;SDS011;65329;52.544;4.662;2023-09-30T13:36:14;5.57;;;1.15;;
76495;SDS011;65329;52.544;4.662;2023-09-30T13:38:41;3.90;;;1.13;;
76495;SDS011;65329;52.544;4.662;2023-09-30T13:41:08;6.85;;;1.67;;
76495;SDS011;65329;52.544;4.662;2023-09-30T13:43:35;7.32;;;1.90;;
76495;SDS011;65329;52.544;4.662;2023-09-30T13:46:03;8.57;;;1.42;;
76495;SDS011;65329;52.544;4.662;2023-09-30T13:48:33;6.10;;;1.40;;
76495;SDS011;65329;52.544;4.662;2023-09-30T13:51:07;5.50;;;1.45;;
76495;SDS011;65329;52.544;4.662;2023-09-30T13:53:34;4.90;;;1.20;;
76495;SDS011;65329;52.544;4.662;2023-09-30T13:56:02;4.00;;;1.23;;
76495;SDS011;65329;52.544;4.662;2023-09-30T13:58:32;6.60;;;1.48;;
76495;SDS011;65329;52.544;4.662;2023-09-30T14:00:59;6.88;;;1.73;;
76495;SDS011;65329;52.544;4.662;2023-09-30T14:03:26;6.25;;;1.48;;
76495;SDS011;65329;52.544;4.662;2023-09-30T14:05:53;7.63;;;1.50;;
76495;SDS011;65329;52.544;4.662;2023-09-30T14:08:21;4.68;;;1.55;;
76495;SDS011;65329;52.544;4.662;2023-09-30T14:10:48;7.05;;;2.10;;
76495;SDS011;65329;52.544;4.662;2023-09-30T14:13:16;10.02;;;1.70;;
76495;SDS011;65329;52.544;4.662;2023-09-30T14:15:44;7.40;;;1.45;;
76495;SDS011;65329;52.544;4.662;2023-09-30T14:18:13;4.32;;;1.10;;
76495;SDS011;65329;52.544;4.662;2023-09-30T14:20:41;3.03;;;1.17;;
76495;SDS011;65329;52.544;4.662;2023-09-30T14:23:08;6.45;;;1.40;;
76495;SDS011;65329;52.544;4.662;2023-09-30T14:25:36;9.20;;;2.10;;
76495;SDS011;65329;52.544;4.662;2023-09-30T14:28:04;3.85;;;0.90;;
76495;SDS011;65329;52.544;4.662;2023-09-30T14:30:31;3.47;;;1.48;;
76495;SDS011;65329;52.544;4.662;2023-09-30T14:33:00;2.95;;;0.90;;
76495;SDS011;65329;52.544;4.662;2023-09-30T14:35:27;5.03;;;1.38;;
76495;SDS011;65329;52.544;4.662;2023-09-30T14:37:54;4.65;;;1.20;;
76495;SDS011;65329;52.544;4.662;2023-09-30T14:40:23;4.72;;;1.10;;
76495;SDS011;65329;52.544;4.662;2023-09-30T14:42:50;3.88;;;1.45;;
76495;SDS011;65329;52.544;4.662;2023-09-30T14:45:17;5.25;;;1.27;;
76495;SDS011;65329;52.544;4.662;2023-09-30T14:47:44;7.18;;;1.40;;
76495;SDS011;65329;52.544;4.662;2023-09-30T14:50:11;4.93;;;1.38;;
76495;SDS011;65329;52.544;4.662;2023-09-30T14:52:38;6.43;;;1.42;;
76495;SDS011;65329;52.544;4.662;2023-09-30T14:55:05;4.88;;;1.15;;
76495;SDS011;65329;52.544;4.662;2023-09-30T14:57:33;5.40;;;1.17;;
76495;SDS011;65329;52.544;4.662;2023-09-30T15:00:00;4.88;;;1.30;;
76495;SDS011;65329;52.544;4.662;2023-09-30T15:02:27;6.25;;;1.23;;
76495;SDS011;65329;52.544;4.662;2023-09-30T15:04:55;8.65;;;2.35;;
76495;SDS011;65329;52.544;4.662;2023-09-30T15:07:22;4.80;;;1.02;;
76495;SDS011;65329;52.544;4.662;2023-09-30T15:09:50;6.88;;;1.92;;
76495;SDS011;65329;52.544;4.662;2023-09-30T15:12:18;12.48;;;3.15;;
76495;SDS011;65329;52.544;4.662;2023-09-30T15:14:45;5.10;;;2.17;;
76495;SDS011;65329;52.544;4.662;2023-09-30T15:17:12;8.93;;;2.53;;
76495;SDS011;65329;52.544;4.662;2023-09-30T15:19:40;4.95;;;2.15;;
76495;SDS011;65329;52.544;4.662;2023-09-30T15:22:07;4.88;;;1.92;;
76495;SDS011;65329;52.544;4.662;2023-09-30T15:24:34;3.05;;;1.67;;